This demonstration page uses our WeatherBlox Daily Observations layout. Learn more.

Left ArrowRight Arrow

36.19886, -115.1175

Hourly Observations for August 17, 2016

Temp ( °F °C ) Dew Point ( °F °C ) Humidity (%) Winds ( mph kmh ) Pressure ( in mb ) Visibility ( mi km ) Precip ( " mm )
12:53 am 00:53 Clear 83 28.3 20 -6.7 10 10 N 5 7 29.82 1010 10 16.0934 0 0
1:53 am 01:53 Clear 83 28.3 17 -8.3 8 8 NNW 3 6 29.82 1010 10 16.0934 0 0
2:53 am 02:53 Clear 80 26.7 20 -6.7 10 10 N 3 6 29.82 1010 10 16.0934 0 0
3:53 am 03:53 Clear 79 26.1 21 -6.1 11 11 WNW 5 7 29.82 1010 10 16.0934 0 0
4:53 am 04:53 Clear 78 25.6 23 -5 13 13 WNW 6 9 29.85 1011 10 16.0934 0 0
5:53 am 05:53 Clear 77 25 23 -5 13 13 NW 5 7 29.85 1011 10 16.0934 0 0
6:53 am 06:53 Sunny 78 25.6 25 -3.9 14 14 WNW 5 7 29.88 1012 10 16.0934 0 0
7:53 am 07:53 Sunny 83 28.3 25 -3.9 12 12 N 3 6 29.9 1012 10 16.0934 0 0
8:53 am 08:53 Sunny 88 31.1 25 -3.9 10 10 Calm 29.9 1012 10 16.0934 0 0
9:53 am 09:53 Sunny 92 33.3 23 -5 8 8 Calm 29.9 1013 10 16.0934 0 0
10:53 am 10:53 Sunny 95 35 30 -1.1 10 10 SE 8 13 29.89 1012 10 16.0934 0 0
11:53 am 11:53 Sunny 99 37.2 35 1.7 11 11 VRB 7 11 29.87 1012 10 16.0934 0 0
12:53 pm 12:53 Sunny 102 38.9 38 3.3 11 11 S 8 13 29.83 1010 10 16.0934 0 0
1:53 pm 13:53 Sunny 106 41.1 36 2.2 9 9 S 18 30 29.8 1009 10 16.0934 0 0
2:53 pm 14:53 Sunny 106 41.1 33 0.6 8 8 SW 15 24 29.78 1008 10 16.0934 0 0
3:53 pm 15:53 Sunny 105 40.6 32 0 8 8 SSW 9 15 29.76 1008 10 16.0934 0 0
4:53 pm 16:53 Sunny 105 40.6 32 0 8 8 WSW 15 24 29.75 1007 10 16.0934 0 0
5:53 pm 17:53 Sunny 104 40 32 0 8 8 W 12 19 29.74 1007 10 16.0934 0 0
6:53 pm 18:53 Sunny 102 38.9 31 -0.6 8 8 W 10 17 29.75 1007 10 16.0934 0 0
7:53 pm 19:53 Clear 100 37.8 29 -1.7 8 8 W 6 9 29.75 1008 10 16.0934 0 0
8:53 pm 20:53 Clear 96 35.6 31 -0.6 10 10 WNW 5 7 29.78 1008 10 16.0934 0 0
9:53 pm 21:53 Clear 92 33.3 33 0.6 12 12 WNW 7 11 29.78 1009 10 16.0934 0 0
10:53 pm 22:53 Clear 91 32.8 34 1.1 13 13 Calm 29.8 1009 10 16.0934 0 0
11:53 pm 23:53 Clear 89 31.7 39 3.9 17 17 ESE 5 7 29.82 1010 10 16.0934 0 0

Powered by AerisWeather